Airfield :
LOGIN :

Register | Disclaimer

   EN    FR    IT 

 










Legend :    VFR   Marginal VFR   IFR   Intensive IFR   Very Intensive IFR
Visi :
Ceiling :
>= 8 km
>= 3000ft
5 to 8 km
1000 to 3000 ft
1500m to 5 km
500 to 1000 ft
800 to 1500m
200 to 500 ft
< 800m
< 200 ft
Symbols :   Thunderstorms  Fog  Heavy snow  Heavy precipitations  Wind > 20 kt
SIGMETs :     Misc.  Thunderstorms  Icing  Turbulence  Mountain Waves  Volcanic Ashes






- Airport Elevation : 82 ft
- IATA code : AAR


EKAH - Aarhus Tirstrup

CURRENT METAR :
  • 020620Z AUTO 27009KT 9999NDV BKN041/// 15/11 Q1005

EXPIRED METARs :
  • 020550Z AUTO 28011KT 9999NDV BKN036/// 15/12 Q1004
  • 020520Z AUTO 28008KT 9999NDV FEW038/// SCT043/// 15/12 Q1004
  • 020450Z AUTO 27006KT 9999NDV NCD 14/13 Q1004
  • 020420Z AUTO 26007KT 9999NDV NCD 13/12 Q1003
  • 020350Z AUTO 26007KT 9999NDV FEW018/// 12/12 Q1003

TAF TAF EKAH
Valid from the 02 at 06:00 until the 03 at 06:00 UTC


020500Z 0206/0306 27008KT 9999 SCT020



MET'MAP, your aeronautical weather chart ! - Copyright ORBIFLY December 2007 - Disclaimer

ORBIFLY MET'MAP TEAM :

Programming & Development : Alexandra Zaïnal
Concept & original design : Baudouin d'Aumeries
Assistance for programming : Marc-Olivier Méhu
Technical & hardware support : Manuel Goepfert

Contact : metmap@orbifly.com




SOURCES & CREDITS :

   NOAA